Time;durP1;ratioP1;P1;durP2;ratioP2;P2;SDS_P1;SDS_P2;PMS_P1;PMS_P2;Temp;Humidity;BMP_temperature;BMP_pressure;BME280_temperature;BME280_humidity;BME280_pressure;Samples;Min_cycle;Max_cycle;Signal;HPM_P1;HPM_P2
2022/12/12 00:00:27;;;;;;;69.13;30.50;;;;;;;0.07;83.42;100702.78;5134567;27;20545;-65
2022/12/12 00:02:53;;;;;;;61.83;29.17;;;;;;;-0.03;83.84;100703.97;5134311;27;20669;-65
2022/12/12 00:05:20;;;;;;;65.47;31.30;;;;;;;0.01;84.05;100703.00;5134073;28;20211;-65
2022/12/12 00:07:46;;;;;;;61.23;27.43;;;;;;;0.08;82.91;100703.69;5134510;28;20569;-65
2022/12/12 00:10:13;;;;;;;68.37;28.83;;;;;;;0.11;82.45;100708.84;5134190;28;20184;-65
2022/12/12 00:12:40;;;;;;;59.23;27.90;;;;;;;0.05;82.58;100706.38;5134177;28;20180;-65
2022/12/12 00:15:07;;;;;;;64.23;28.40;;;;;;;0.13;83.22;100704.41;5134236;28;20208;-65
2022/12/12 00:17:34;;;;;;;62.27;27.47;;;;;;;0.22;82.03;100709.41;5134123;28;20202;-65
2022/12/12 00:20:00;;;;;;;58.57;26.67;;;;;;;0.24;82.25;100711.97;5134224;28;20192;-65
2022/12/12 00:22:26;;;;;;;66.47;27.33;;;;;;;0.25;81.48;100709.31;5134709;28;20177;-65
2022/12/12 00:24:53;;;;;;;52.40;26.73;;;;;;;0.28;80.99;100711.84;5134336;28;20208;-65
2022/12/12 00:27:19;;;;;;;47.13;25.97;;;;;;;0.27;82.14;100717.19;5134376;28;20177;-65
2022/12/12 00:29:53;;;;;;;61.40;26.13;;;;;;;0.30;81.91;100724.97;5115653;28;20192;-65
2022/12/12 00:32:19;;;;;;;56.93;24.40;;;;;;;0.32;81.08;100717.91;5134302;28;20526;-65
2022/12/12 00:34:46;;;;;;;56.13;25.27;;;;;;;0.31;82.26;100719.69;5134219;28;20206;-65
2022/12/12 00:37:12;;;;;;;55.53;25.30;;;;;;;0.36;80.67;100719.50;5133914;28;20188;-65
2022/12/12 00:39:41;;;;;;;51.13;26.03;;;;;;;0.35;81.96;100718.66;5133925;28;20218;-65
2022/12/12 00:42:07;;;;;;;62.93;26.80;;;;;;;0.36;82.07;100722.13;5134481;28;20533;-65
2022/12/12 00:44:34;;;;;;;56.87;25.80;;;;;;;0.36;81.15;100727.41;5133748;28;20208;-65
2022/12/12 00:47:01;;;;;;;52.97;25.87;;;;;;;0.34;81.14;100730.13;5134210;28;20177;-65
2022/12/12 00:49:28;;;;;;;47.80;23.83;;;;;;;0.34;81.09;100726.63;5134136;28;20176;-65
2022/12/12 00:51:54;;;;;;;45.13;24.63;;;;;;;0.35;81.53;100725.69;5135868;27;20188;-65
2022/12/12 00:54:20;;;;;;;55.33;25.57;;;;;;;0.35;82.34;100723.06;5137669;27;20614;-65
2022/12/12 00:56:47;;;;;;;50.93;25.57;;;;;;;0.33;81.81;100722.25;5137707;27;20187;-65
2022/12/12 00:59:13;;;;;;;53.13;23.37;;;;;;;0.33;81.31;100728.38;5137932;27;20549;-65
2022/12/12 01:01:40;;;;;;;59.83;24.17;;;;;;;0.32;82.10;100731.91;5137605;27;20176;-65
2022/12/12 01:04:06;;;;;;;44.40;24.03;;;;;;;0.36;81.42;100733.56;5137741;27;20184;-65
2022/12/12 01:06:33;;;;;;;51.73;24.07;;;;;;;0.35;81.69;100737.09;5137746;27;20204;-65
2022/12/12 01:08:59;;;;;;;53.80;25.93;;;;;;;0.36;81.62;100746.75;5137507;27;20195;-65
2022/12/12 01:11:25;;;;;;;45.67;23.83;;;;;;;0.37;82.62;100742.31;5137440;27;20177;-65
2022/12/12 01:13:53;;;;;;;53.40;23.50;;;;;;;0.35;82.10;100739.72;5137279;27;20176;-65
2022/12/12 01:16:21;;;;;;;40.47;22.03;;;;;;;0.36;82.79;100744.09;5137323;27;20665;-65
2022/12/12 01:18:48;;;;;;;45.43;23.70;;;;;;;0.37;82.40;100748.44;5137296;27;20200;-65
2022/12/12 01:21:16;;;;;;;49.57;23.13;;;;;;;0.39;81.29;100746.63;5137253;27;20196;-65
2022/12/12 01:23:43;;;;;;;46.90;23.13;;;;;;;0.39;81.50;100751.06;5137449;27;20184;-65
2022/12/12 01:26:16;;;;;;;49.97;24.27;;;;;;;0.41;81.73;100754.50;5136973;27;20212;-65
2022/12/12 01:28:44;;;;;;;50.50;23.27;;;;;;;0.38;82.03;100752.81;5119106;27;20618;-65
2022/12/12 01:31:11;;;;;;;42.13;22.03;;;;;;;0.32;81.82;100752.13;5137053;27;20180;-65
2022/12/12 01:33:38;;;;;;;60.67;25.43;;;;;;;0.17;82.82;100743.78;5137820;27;20546;-65
2022/12/12 01:36:05;;;;;;;46.50;23.37;;;;;;;0.23;81.90;100753.25;5136870;27;20200;-65
2022/12/12 01:38:32;;;;;;;43.33;23.57;;;;;;;0.26;81.79;100760.19;5137141;27;20191;-65
2022/12/12 01:40:58;;;;;;;57.00;25.23;;;;;;;0.26;82.95;100754.94;5136818;27;20184;-65
2022/12/12 01:43:25;;;;;;;45.97;23.53;;;;;;;0.28;81.47;100761.03;5136803;27;20188;-65
2022/12/12 01:46:30;;;;;;;43.27;23.07;;;;;;;0.30;81.98;100761.84;5136670;27;20216;-65
2022/12/12 01:49:05;;;;;;;42.57;23.47;;;;;;;0.27;82.99;100765.44;5132396;27;20204;-65
2022/12/12 01:51:32;;;;;;;42.40;22.33;;;;;;;0.32;81.90;100766.16;5137240;27;20233;-65
2022/12/12 01:54:06;;;;;;;39.67;20.83;;;;;;;0.31;82.89;100761.81;5136822;27;20180;-65
2022/12/12 01:56:34;;;;;;;43.63;23.13;;;;;;;0.32;83.04;100767.94;5136848;27;20173;-65
2022/12/12 01:59:04;;;;;;;40.63;22.63;;;;;;;0.31;82.46;100763.56;5136512;27;20188;-65
2022/12/12 02:01:30;;;;;;;43.30;23.10;;;;;;;0.30;83.34;100761.84;5136460;27;20180;-65
2022/12/12 02:03:59;;;;;;;44.50;22.83;;;;;;;0.29;83.52;100763.63;5135065;27;20200;-65
2022/12/12 02:06:27;;;;;;;44.57;23.13;;;;;;;0.30;83.25;100762.72;5136815;27;20292;-65
2022/12/12 02:08:57;;;;;;;41.23;21.60;;;;;;;0.31;82.59;100760.94;5136295;27;20189;-65
2022/12/12 02:11:26;;;;;;;46.53;21.77;;;;;;;0.33;83.73;100765.25;5136390;27;20190;-65
2022/12/12 02:13:53;;;;;;;53.70;22.80;;;;;;;0.34;83.98;100759.09;5136660;27;20193;-65
2022/12/12 02:16:30;;;;;;;42.60;22.37;;;;;;;0.36;83.62;100765.19;5136431;27;20191;-65
2022/12/12 02:19:38;;;;;;;49.03;24.00;;;;;;;0.34;83.93;100759.09;5136998;27;20560;-65
2022/12/12 02:22:18;;;;;;;47.97;24.13;;;;;;;0.34;82.46;100758.22;5101803;27;20208;-65
2022/12/12 02:25:14;;;;;;;43.30;24.33;;;;;;;0.35;83.25;100757.31;5136170;27;20219;-65
2022/12/12 02:28:07;;;;;;;50.60;24.80;;;;;;;0.28;82.62;100761.03;5136279;27;20181;-65
2022/12/12 02:30:44;;;;;;;45.40;23.40;;;;;;;0.16;83.06;100757.81;5136191;27;20635;-65
2022/12/12 02:33:22;;;;;;;48.87;22.03;;;;;;;0.16;84.20;100759.59;5118015;27;20181;-65
2022/12/12 02:36:02;;;;;;;43.57;23.87;;;;;;;0.21;83.21;100765.59;5135733;27;20207;-65
2022/12/12 02:38:48;;;;;;;55.07;24.60;;;;;;;0.21;83.59;100760.34;5136056;27;20180;-64
2022/12/12 02:41:28;;;;;;;48.40;23.33;;;;;;;0.23;83.92;100762.94;5135702;27;20173;-64
2022/12/12 02:43:54;;;;;;;40.17;22.17;;;;;;;0.24;84.64;100762.00;5135837;27;20259;-65
2022/12/12 02:46:31;;;;;;;49.73;23.43;;;;;;;0.26;83.54;100761.06;5135792;27;20211;-65
2022/12/12 02:49:08;;;;;;;43.10;23.63;;;;;;;0.26;84.59;100765.47;5136112;27;20204;-65
2022/12/12 02:51:37;;;;;;;41.67;21.30;;;;;;;0.27;83.58;100765.44;5136045;27;20183;-65
2022/12/12 02:54:05;;;;;;;48.40;23.80;;;;;;;0.30;83.66;100767.13;5135568;27;20191;-65
2022/12/12 02:56:42;;;;;;;45.83;24.00;;;;;;;0.34;83.54;100768.75;5135358;27;20177;-65
2022/12/12 02:59:11;;;;;;;50.67;24.80;;;;;;;0.33;83.18;100764.38;5135620;27;20176;-65
2022/12/12 03:02:16;;;;;;;46.97;23.53;;;;;;;0.31;83.07;100767.09;5135256;27;20188;-65
2022/12/12 03:08:03;;;;;;;50.00;24.73;;;;;;;0.37;83.82;100758.13;5135171;27;20180;-65
2022/12/12 03:10:36;;;;;;;51.07;24.27;;;;;;;0.32;83.14;100760.03;5135411;27;20247;-65
2022/12/12 03:13:02;;;;;;;42.57;21.47;;;;;;;0.28;84.51;100763.66;5135008;27;20184;-65
2022/12/12 03:15:53;;;;;;;56.03;26.10;;;;;;;0.26;84.44;100760.19;5134578;27;20547;-65
2022/12/12 03:18:27;;;;;;;57.50;27.10;;;;;;;0.25;84.41;100767.25;5135293;27;20173;-65
2022/12/12 03:21:02;;;;;;;51.57;25.50;;;;;;;0.20;82.94;100763.88;5134778;27;20185;-65
2022/12/12 03:23:38;;;;;;;51.93;25.93;;;;;;;0.27;83.76;100767.22;5134927;27;20193;-65
2022/12/12 03:26:15;;;;;;;52.67;25.10;;;;;;;0.22;83.31;100759.44;5134721;27;20251;-65
2022/12/12 03:28:51;;;;;;;43.93;22.93;;;;;;;0.08;84.84;100762.47;5135110;27;20259;-65
2022/12/12 03:31:22;;;;;;;59.07;26.73;;;;;;;0.11;84.28;100765.00;5134749;27;20180;-65
2022/12/12 03:33:53;;;;;;;53.27;26.40;;;;;;;0.17;83.89;100761.34;5135020;27;20199;-65
2022/12/12 03:36:32;;;;;;;59.07;25.93;;;;;;;0.19;83.04;100760.41;5134752;27;20173;-65
2022/12/12 03:39:05;;;;;;;55.03;26.93;;;;;;;0.24;83.94;100765.53;5134651;27;20177;-64
2022/12/12 03:41:39;;;;;;;46.80;23.20;;;;;;;0.21;83.77;100760.34;5134600;27;20187;-64
2022/12/12 03:44:12;;;;;;;53.17;24.90;;;;;;;0.23;83.02;100761.16;5134754;27;20171;-65
2022/12/12 03:46:52;;;;;;;54.17;25.53;;;;;;;0.25;84.31;100756.72;5134744;27;20199;-64
2022/12/12 03:49:38;;;;;;;43.63;22.50;;;;;;;0.26;84.44;100763.69;5134771;27;20173;-64
2022/12/12 03:52:20;;;;;;;48.83;23.47;;;;;;;0.26;83.90;100758.44;5134736;27;20177;-64
2022/12/12 03:55:07;;;;;;;43.77;22.57;;;;;;;0.28;84.08;100763.66;5134541;27;20205;-65
2022/12/12 03:57:40;;;;;;;50.40;25.03;;;;;;;0.28;83.55;100769.78;5134909;27;20176;-65
2022/12/12 04:00:09;;;;;;;54.23;25.37;;;;;;;0.22;84.31;100769.97;5134937;27;20200;-65
2022/12/12 04:02:46;;;;;;;59.30;25.97;;;;;;;0.18;84.88;100774.44;5134630;27;20200;-65
2022/12/12 04:05:19;;;;;;;67.50;27.17;;;;;;;0.19;83.69;100773.56;5134424;28;20247;-65
2022/12/12 04:07:52;;;;;;;57.67;27.00;;;;;;;0.18;84.87;100771.81;5134825;28;20187;-65
2022/12/12 04:13:21;;;;;;;55.90;27.27;;;;;;;0.14;84.48;100767.53;5134519;28;20211;-65
2022/12/12 04:15:57;;;;;;;54.43;25.57;;;;;;;0.15;83.50;100766.66;5134179;28;20205;-65
2022/12/12 04:18:36;;;;;;;49.07;24.93;;;;;;;0.15;83.90;100760.53;5134454;28;20289;-65
2022/12/12 04:24:21;;;;;;;54.77;25.80;;;;;;;0.14;83.87;100767.53;5134381;28;20182;-65
2022/12/12 04:27:06;;;;;;;55.67;25.77;;;;;;;0.12;83.26;100771.13;5136309;27;20200;-65
2022/12/12 04:29:52;;;;;;;47.60;23.93;;;;;;;0.11;83.84;100779.94;5138563;27;20192;-64
2022/12/12 04:32:25;;;;;;;50.97;24.47;;;;;;;0.15;84.24;100774.53;5138509;27;20176;-64
2022/12/12 04:35:13;;;;;;;60.23;27.63;;;;;;;0.13;83.45;100794.78;5138136;27;20211;-65
2022/12/12 04:37:42;;;;;;;61.97;25.13;;;;;;;0.09;82.80;100779.09;5138395;27;20180;-65
2022/12/12 04:40:13;;;;;;;48.37;24.43;;;;;;;0.02;83.40;100788.94;5138903;27;20191;-64
2022/12/12 04:42:45;;;;;;;54.63;24.70;;;;;;;0.01;83.84;100791.63;5138289;27;20537;-64
2022/12/12 04:45:19;;;;;;;53.50;24.73;;;;;;;-0.02;83.53;100790.81;5138384;27;20213;-64
2022/12/12 04:47:49;;;;;;;57.10;26.60;;;;;;;-0.02;83.31;100792.59;5137842;27;20201;-64
2022/12/12 04:50:17;;;;;;;57.00;24.63;;;;;;;-0.04;83.81;100789.97;5138116;27;20187;-64
2022/12/12 04:52:47;;;;;;;49.10;24.73;;;;;;;-0.04;83.74;100794.38;5138327;27;20568;-64
2022/12/12 04:55:20;;;;;;;57.03;26.67;;;;;;;-0.08;83.82;100792.75;5137666;27;20208;-65
2022/12/12 04:57:49;;;;;;;49.47;24.67;;;;;;;-0.09;83.45;100789.25;5138012;27;20177;-64
2022/12/12 05:00:16;;;;;;;49.87;23.03;;;;;;;-0.08;84.91;100785.69;5137675;27;20267;-64
2022/12/12 05:02:57;;;;;;;54.50;24.23;;;;;;;-0.06;84.85;100791.78;5137618;27;20265;-64
2022/12/12 05:05:28;;;;;;;55.50;27.03;;;;;;;-0.06;83.94;100796.19;5137677;27;20298;-64
2022/12/12 05:08:18;;;;;;;61.90;25.77;;;;;;;-0.04;84.07;100799.66;5137827;27;20179;-64
2022/12/12 05:10:49;;;;;;;47.07;22.70;;;;;;;-0.04;84.49;100802.28;5119003;27;20570;-64
2022/12/12 05:13:18;;;;;;;66.87;27.03;;;;;;;-0.05;85.01;100800.53;5137445;27;20183;-64
2022/12/12 05:15:47;;;;;;;57.30;26.40;;;;;;;-0.04;85.09;100797.03;5137479;27;20222;-65
2022/12/12 05:18:13;;;;;;;61.03;26.53;;;;;;;-0.06;84.28;100809.34;5137515;27;20192;-65
2022/12/12 05:20:40;;;;;;;59.13;27.63;;;;;;;-0.06;84.60;100814.63;5137299;27;20199;-65
2022/12/12 05:23:06;;;;;;;55.90;27.53;;;;;;;-0.04;84.83;100807.56;5137178;27;20188;-65
2022/12/12 05:25:33;;;;;;;50.03;23.90;;;;;;;-0.03;84.30;100817.16;5136985;27;20212;-63
2022/12/12 05:28:04;;;;;;;60.00;23.93;;;;;;;-0.03;85.00;100809.25;5137675;27;20221;-63
2022/12/12 05:30:31;;;;;;;56.50;25.43;;;;;;;-0.02;85.11;100813.66;5137321;27;20184;-63
2022/12/12 05:32:58;;;;;;;51.87;25.43;;;;;;;0.00;84.80;100809.22;5137316;27;20206;-63
2022/12/12 05:35:25;;;;;;;59.73;26.27;;;;;;;0.05;85.23;100811.69;5137489;27;20215;-64
2022/12/12 05:37:51;;;;;;;66.47;29.33;;;;;;;0.03;84.35;100813.53;5136988;27;20190;-64
2022/12/12 05:40:19;;;;;;;64.60;27.03;;;;;;;0.01;84.20;100812.69;5138364;27;20196;-64
2022/12/12 05:42:47;;;;;;;57.03;25.50;;;;;;;0.02;84.59;100815.25;5138165;27;20199;-64
2022/12/12 05:45:13;;;;;;;61.07;26.53;;;;;;;0.06;85.43;100821.31;5138022;27;20219;-64
2022/12/12 05:47:40;;;;;;;59.60;26.40;;;;;;;0.11;85.17;100822.06;5138962;27;20207;-64
2022/12/12 05:50:07;;;;;;;48.60;24.37;;;;;;;0.01;84.50;100828.50;5138461;27;20647;-64
2022/12/12 05:52:33;;;;;;;55.93;25.37;;;;;;;0.00;85.84;100825.00;5138162;27;20192;-64
2022/12/12 05:54:59;;;;;;;45.57;24.07;;;;;;;0.02;85.54;100827.56;5137694;27;20219;-64
2022/12/12 05:57:26;;;;;;;53.97;25.13;;;;;;;0.02;85.55;100824.94;5137944;27;20278;-64
2022/12/12 05:59:52;;;;;;;52.13;26.03;;;;;;;0.04;84.53;100833.66;5138823;27;20203;-64
2022/12/12 06:02:19;;;;;;;50.63;25.03;;;;;;;0.08;85.79;100822.16;5138215;27;20184;-64
2022/12/12 06:04:46;;;;;;;51.97;25.80;;;;;;;0.09;84.48;100826.50;5138240;27;20208;-64
2022/12/12 06:07:12;;;;;;;42.47;21.53;;;;;;;0.07;84.40;100830.94;5138177;27;20212;-64
2022/12/12 06:09:39;;;;;;;50.60;25.33;;;;;;;0.07;85.89;100834.44;5137954;27;20181;-64
2022/12/12 06:12:06;;;;;;;59.30;26.77;;;;;;;0.07;85.57;100837.06;5137662;27;20180;-64
2022/12/12 06:14:33;;;;;;;64.17;28.37;;;;;;;0.10;85.96;100834.38;5136820;27;20215;-64
2022/12/12 06:16:59;;;;;;;62.07;26.83;;;;;;;0.09;85.41;100843.16;5136470;27;20558;-64
2022/12/12 06:19:25;;;;;;;56.80;26.37;;;;;;;0.07;85.60;100842.31;5136210;27;20672;-64
2022/12/12 06:21:52;;;;;;;58.80;27.23;;;;;;;0.03;86.29;100838.06;5136069;27;20185;-64
2022/12/12 06:24:18;;;;;;;64.30;27.77;;;;;;;0.06;85.88;100839.75;5135961;27;20206;-64
2022/12/12 06:26:45;;;;;;;70.03;30.23;;;;;;;0.05;86.49;100841.53;5136170;27;20222;-64
2022/12/12 06:29:13;;;;;;;65.83;28.43;;;;;;;0.07;86.28;100839.69;5135831;27;20673;-64
2022/12/12 06:31:40;;;;;;;70.60;29.03;;;;;;;0.10;85.96;100836.16;5135839;27;20181;-64
2022/12/12 06:34:06;;;;;;;54.67;29.03;;;;;;;0.12;86.24;100836.94;5135662;27;20195;-64
2022/12/12 06:36:32;;;;;;;66.60;29.83;;;;;;;0.13;86.12;100844.81;5136014;27;20584;-64
2022/12/12 06:39:00;;;;;;;71.17;29.67;;;;;;;0.11;85.01;100851.88;5135974;27;20197;-64
2022/12/12 06:41:28;;;;;;;48.17;26.23;;;;;;;0.12;86.30;100853.63;5135577;27;20195;-64
2022/12/12 06:43:55;;;;;;;61.60;28.73;;;;;;;0.10;84.90;100852.81;5135405;27;20179;-65
2022/12/12 06:46:24;;;;;;;59.13;28.30;;;;;;;0.12;86.00;100850.09;5135454;27;20208;-64
2022/12/12 06:48:51;;;;;;;61.57;27.63;;;;;;;0.10;85.51;100857.22;5134684;27;20184;-64
2022/12/12 06:51:21;;;;;;;58.67;28.77;;;;;;;0.15;85.01;100861.44;5135636;27;20180;-64
2022/12/12 06:53:48;;;;;;;54.50;27.03;;;;;;;0.11;85.51;100856.28;5135440;27;20195;-64
2022/12/12 06:56:17;;;;;;;69.83;28.60;;;;;;;0.13;84.26;100865.03;5135211;27;20215;-64
2022/12/12 06:58:44;;;;;;;68.07;29.27;;;;;;;0.02;83.93;100862.66;5135303;27;20192;-64
2022/12/12 07:01:12;;;;;;;58.97;28.13;;;;;;;-0.03;84.19;100869.81;5135249;27;20180;-64
2022/12/12 07:03:39;;;;;;;52.87;27.53;;;;;;;-0.03;84.18;100861.91;5135592;27;20177;-64
2022/12/12 07:06:06;;;;;;;60.40;28.80;;;;;;;-0.02;84.24;100867.16;5134955;27;20219;-64
2022/12/12 07:08:34;;;;;;;61.53;28.73;;;;;;;-0.05;85.21;100864.59;5135128;27;20680;-64
2022/12/12 07:11:14;;;;;;;55.90;27.77;;;;;;;-0.09;84.99;100860.31;5135061;27;20185;-64
2022/12/12 07:13:41;;;;;;;64.60;28.03;;;;;;;-0.13;83.43;100856.03;5135644;27;20173;-64
2022/12/12 07:16:08;;;;;;;62.10;28.00;;;;;;;-0.16;84.02;100861.38;5134995;27;20196;-64
2022/12/12 07:18:35;;;;;;;61.57;27.73;;;;;;;-0.14;83.62;100871.88;5135004;27;20267;-64
2022/12/12 07:21:06;;;;;;;55.73;27.53;;;;;;;-0.14;84.68;100869.25;5134687;27;20192;-64
2022/12/12 07:23:33;;;;;;;58.07;27.80;;;;;;;-0.13;83.43;100870.97;5134885;27;20184;-64
2022/12/12 07:26:03;;;;;;;59.53;28.70;;;;;;;-0.15;83.63;100878.88;5135177;27;20566;-64
2022/12/12 07:28:30;;;;;;;48.93;25.47;;;;;;;-0.11;84.66;100882.31;5135027;27;20177;-64
2022/12/12 07:30:57;;;;;;;62.47;27.30;;;;;;;-0.12;83.66;100863.03;5134720;27;20180;-64
2022/12/12 07:33:23;;;;;;;52.70;26.43;;;;;;;-0.13;84.05;100879.72;5134664;27;20723;-64
2022/12/12 07:36:01;;;;;;;59.73;28.33;;;;;;;-0.17;82.89;100880.69;5134525;27;20700;-64
2022/12/12 07:38:27;;;;;;;48.90;27.07;;;;;;;-0.23;83.02;100886.13;5134579;27;20184;-64
2022/12/12 07:40:54;;;;;;;51.33;26.23;;;;;;;-0.18;83.94;100889.50;5134833;27;20179;-64
2022/12/12 07:43:21;;;;;;;52.03;26.73;;;;;;;-0.13;82.74;100897.28;5134502;27;20189;-64
2022/12/12 07:45:52;;;;;;;59.10;27.13;;;;;;;-0.16;84.23;100895.59;5134495;27;20728;-65
2022/12/12 07:48:18;;;;;;;56.57;26.80;;;;;;;-0.18;84.15;100901.78;5134313;27;20227;-64
2022/12/12 07:50:44;;;;;;;58.47;28.40;;;;;;;-0.15;83.86;100912.25;5134409;27;20194;-64
2022/12/12 07:53:11;;;;;;;57.63;29.47;;;;;;;-0.12;83.97;100905.16;5134662;27;20181;-64
2022/12/12 07:55:39;;;;;;;67.37;28.77;;;;;;;-0.12;82.79;100899.88;5134233;27;20211;-65
2022/12/12 07:58:05;;;;;;;63.53;29.00;;;;;;;-0.15;83.78;100899.06;5134235;27;20184;-65
2022/12/12 08:00:31;;;;;;;62.73;30.03;;;;;;;-0.12;82.75;100907.78;5134543;27;20177;-65
2022/12/12 08:02:58;;;;;;;60.97;29.30;;;;;;;-0.09;83.81;100901.56;5134710;27;20538;-65
2022/12/12 08:05:24;;;;;;;66.83;29.97;;;;;;;-0.07;83.78;100905.91;5134199;27;20221;-65
2022/12/12 08:07:50;;;;;;;60.37;28.27;;;;;;;-0.02;82.47;100905.78;5134466;28;20569;-64
2022/12/12 08:10:17;;;;;;;68.87;30.10;;;;;;;-0.11;83.56;100906.88;5134157;28;20657;-64
2022/12/12 08:12:43;;;;;;;63.80;29.17;;;;;;;-0.13;83.44;100910.44;5134176;28;20204;-64
2022/12/12 08:15:15;;;;;;;56.37;29.07;;;;;;;-0.11;83.29;100908.63;5134347;28;20208;-65
2022/12/12 08:17:42;;;;;;;58.43;28.93;;;;;;;-0.11;84.40;100903.38;5134395;28;20185;-65
2022/12/12 08:20:09;;;;;;;60.90;28.80;;;;;;;-0.02;83.91;100901.38;5133935;28;20203;-64
2022/12/12 08:22:36;;;;;;;61.10;30.47;;;;;;;0.05;82.54;100904.72;5134328;28;20203;-64
2022/12/12 08:25:03;;;;;;;58.67;30.47;;;;;;;0.05;83.34;100903.84;5133929;28;20206;-65
2022/12/12 08:27:29;;;;;;;64.20;29.73;;;;;;;0.05;84.24;100917.88;5133855;28;20213;-64
2022/12/12 08:29:56;;;;;;;57.73;29.17;;;;;;;0.06;83.62;100911.69;5134255;28;20219;-64
2022/12/12 08:32:23;;;;;;;71.33;28.90;;;;;;;0.12;82.68;100921.19;5134108;28;20349;-64
2022/12/12 08:34:49;;;;;;;63.90;30.43;;;;;;;0.14;83.60;100907.09;5133902;28;20204;-65
2022/12/12 08:37:15;;;;;;;63.07;29.20;;;;;;;0.17;82.57;100909.66;5134441;28;20187;-64
2022/12/12 08:39:43;;;;;;;54.53;27.57;;;;;;;0.24;82.26;100904.22;5134287;28;20566;-64
2022/12/12 08:42:09;;;;;;;54.93;29.00;;;;;;;0.22;82.03;100909.53;5134070;28;20184;-64
2022/12/12 08:44:35;;;;;;;69.37;31.00;;;;;;;0.20;82.89;100914.84;5134007;28;20205;-65
2022/12/12 08:47:02;;;;;;;56.37;29.37;;;;;;;0.18;82.26;100911.38;5133710;28;20597;-65
2022/12/12 08:49:28;;;;;;;66.10;31.07;;;;;;;0.15;82.00;100911.47;5134058;28;20245;-65
2022/12/12 08:51:55;;;;;;;63.97;28.10;;;;;;;0.19;82.64;100914.88;5133733;28;20189;-65
2022/12/12 08:54:22;;;;;;;54.33;28.53;;;;;;;0.23;83.10;100915.66;5133670;28;20237;-65
2022/12/12 08:56:48;;;;;;;58.57;28.87;;;;;;;0.22;82.73;100917.44;5133689;28;20187;-64
2022/12/12 08:59:15;;;;;;;73.10;31.47;;;;;;;0.24;82.56;100915.66;5133685;28;20685;-64
2022/12/12 09:01:41;;;;;;;60.03;30.70;;;;;;;0.29;82.71;100920.75;5133959;28;20553;-64
2022/12/12 09:04:08;;;;;;;58.43;29.17;;;;;;;0.33;83.19;100925.91;5134097;28;20304;-65
2022/12/12 09:06:34;;;;;;;53.33;28.10;;;;;;;0.28;82.51;100929.56;5133560;28;20226;-64
2022/12/12 09:09:01;;;;;;;62.43;29.50;;;;;;;0.32;82.10;100934.72;5133648;28;20181;-64
2022/12/12 09:11:27;;;;;;;60.77;31.00;;;;;;;0.33;82.16;100933.81;5133590;27;20196;-64
2022/12/12 09:13:54;;;;;;;61.00;29.43;;;;;;;0.39;81.30;100933.66;5136931;27;20389;-64
2022/12/12 09:16:22;;;;;;;52.07;28.73;;;;;;;0.34;81.31;100932.06;5137600;27;20608;-64
2022/12/12 09:18:48;;;;;;;60.43;29.10;;;;;;;0.33;81.13;100932.94;5137781;27;20189;-64
2022/12/12 09:21:16;;;;;;;54.03;27.40;;;;;;;0.40;81.87;100932.75;5137287;27;20227;-64
2022/12/12 09:23:42;;;;;;;66.73;30.10;;;;;;;0.41;81.84;100938.91;5137438;27;20647;-64
2022/12/12 09:26:10;;;;;;;59.67;29.43;;;;;;;0.29;81.50;100937.44;5137662;27;20227;-64
2022/12/12 09:28:37;;;;;;;59.97;29.57;;;;;;;0.48;81.20;100939.59;5137329;27;20201;-64
2022/12/12 09:31:08;;;;;;;60.30;29.83;;;;;;;0.56;81.30;100937.63;5136935;27;20180;-64
2022/12/12 09:33:35;;;;;;;64.77;29.00;;;;;;;0.61;82.04;100941.00;5137512;27;20185;-64
2022/12/12 09:36:05;;;;;;;56.10;28.73;;;;;;;0.68;81.41;100941.69;5137136;27;20212;-65
2022/12/12 09:38:32;;;;;;;59.07;29.60;;;;;;;0.79;81.42;100943.13;5137396;27;20545;-64
2022/12/12 09:41:01;;;;;;;72.77;30.37;;;;;;;0.84;79.68;100941.22;5136817;27;20199;-65
2022/12/12 09:43:32;;;;;;;61.77;28.20;;;;;;;0.89;79.89;100942.84;5136772;27;20233;-64
2022/12/12 09:46:01;;;;;;;62.57;28.77;;;;;;;0.96;79.96;100941.75;5136953;27;20216;-65
2022/12/12 09:48:45;;;;;;;55.77;28.57;;;;;;;1.05;79.09;100938.88;5137121;27;20670;-65
2022/12/12 09:51:12;;;;;;;59.53;28.77;;;;;;;1.18;79.36;100934.13;5136600;27;20654;-65
2022/12/12 09:53:42;;;;;;;67.93;27.53;;;;;;;1.18;78.88;100937.59;5136646;27;20189;-65
2022/12/12 09:56:26;;;;;;;62.07;28.57;;;;;;;1.17;78.36;100933.22;5136740;27;20226;-65
2022/12/12 09:59:13;;;;;;;62.63;31.77;;;;;;;1.11;78.89;100941.34;5136880;27;20171;-65
2022/12/12 10:01:58;;;;;;;55.67;27.67;;;;;;;0.79;78.89;100940.50;5136777;27;20177;-65
2022/12/12 10:04:41;;;;;;;73.87;27.80;;;;;;;1.01;77.91;100940.75;5136645;27;20222;-66
2022/12/12 10:07:29;;;;;;;54.17;28.53;;;;;;;0.85;78.46;100942.09;5136918;27;20197;-66
2022/12/12 10:10:17;;;;;;;61.37;29.20;;;;;;;0.95;79.16;100938.25;5136634;27;20165;-66
2022/12/12 10:12:45;;;;;;;68.93;30.77;;;;;;;0.98;79.34;100939.94;5136738;27;20176;-66
2022/12/12 10:15:24;;;;;;;63.23;28.83;;;;;;;1.01;79.11;100939.88;5136061;27;20208;-65
2022/12/12 10:17:51;;;;;;;53.37;28.00;;;;;;;1.06;79.44;100935.34;5136200;27;20172;-65
2022/12/12 10:20:24;;;;;;;52.23;27.33;;;;;;;1.09;78.65;100942.28;5136359;27;20258;-65
2022/12/12 10:22:55;;;;;;;62.17;28.83;;;;;;;1.03;79.57;100935.41;5136509;27;20177;-65
2022/12/12 10:25:38;;;;;;;74.53;30.00;;;;;;;1.16;78.94;100939.44;5135363;27;20576;-65
2022/12/12 10:28:11;;;;;;;55.07;28.40;;;;;;;1.19;78.27;100938.47;5136183;27;20197;-65
2022/12/12 10:31:15;;;;;;;59.33;29.50;;;;;;;1.28;78.09;100933.78;5136116;27;20528;-65
2022/12/12 10:34:00;;;;;;;54.97;27.90;;;;;;;1.45;77.59;100935.91;5135903;27;20188;-66
2022/12/12 10:36:45;;;;;;;57.60;26.33;;;;;;;1.55;78.33;100936.47;5136406;27;20172;-66
2022/12/12 10:39:18;;;;;;;63.07;25.90;;;;;;;1.65;77.03;100932.66;5136386;27;20535;-66
2022/12/12 10:41:47;;;;;;;46.50;25.67;;;;;;;1.78;76.55;100925.19;5135758;27;20180;-66
2022/12/12 10:44:32;;;;;;;63.57;27.47;;;;;;;1.81;75.15;100930.38;5135970;27;20581;-66
2022/12/12 10:47:04;;;;;;;50.80;27.50;;;;;;;1.99;74.59;100923.66;5136080;27;20173;-66
2022/12/12 10:49:32;;;;;;;52.40;26.13;;;;;;;2.06;74.18;100922.53;5135800;27;20188;-66
2022/12/12 10:52:03;;;;;;;54.00;27.13;;;;;;;2.15;73.40;100923.13;5135754;27;20177;-66
2022/12/12 10:54:43;;;;;;;57.70;26.73;;;;;;;2.21;73.53;100929.06;5135661;27;20204;-66
2022/12/12 10:57:13;;;;;;;58.30;26.23;;;;;;;2.24;72.79;100915.75;5136018;27;20174;-66
2022/12/12 10:59:48;;;;;;;52.07;25.03;;;;;;;2.32;73.48;100915.47;5135623;27;20208;-66
2022/12/12 11:02:25;;;;;;;57.13;24.37;;;;;;;2.37;73.06;100916.19;5135747;27;20262;-66
2022/12/12 11:05:01;;;;;;;47.33;23.97;;;;;;;2.57;72.38;100917.28;5135383;27;20209;-66
2022/12/12 11:07:28;;;;;;;55.60;26.27;;;;;;;2.57;71.30;100909.34;5135416;27;20210;-66
2022/12/12 11:09:56;;;;;;;45.43;23.83;;;;;;;2.62;71.88;100915.31;5135525;27;20636;-67
2022/12/12 11:12:32;;;;;;;46.30;23.43;;;;;;;2.39;70.67;100908.19;5135456;27;20180;-66
2022/12/12 11:15:05;;;;;;;46.33;23.50;;;;;;;2.35;71.16;100904.81;5135011;27;20212;-67
2022/12/12 11:17:33;;;;;;;56.23;24.97;;;;;;;2.43;71.14;100909.81;5135412;27;20178;-66
2022/12/12 11:20:05;;;;;;;45.73;22.97;;;;;;;2.31;71.03;100909.31;5135211;27;20185;-66
2022/12/12 11:22:32;;;;;;;45.63;22.47;;;;;;;2.40;71.37;100908.16;5135775;27;20684;-66
2022/12/12 11:24:59;;;;;;;50.10;23.60;;;;;;;2.54;71.43;100905.88;5134748;27;20221;-66
2022/12/12 11:27:33;;;;;;;44.90;22.60;;;;;;;2.54;70.22;100902.38;5134704;27;20665;-66
2022/12/12 11:30:06;;;;;;;41.83;22.10;;;;;;;2.28;71.01;100904.16;5135132;27;20175;-66
2022/12/12 11:32:44;;;;;;;44.63;22.83;;;;;;;2.57;70.23;100904.91;5135395;27;20173;-66
2022/12/12 11:35:36;;;;;;;44.83;23.13;;;;;;;2.70;70.63;100898.25;5134612;27;20207;-66
2022/12/12 11:38:19;;;;;;;52.80;23.53;;;;;;;2.86;68.43;100898.56;5134563;27;20224;-66
2022/12/12 11:40:57;;;;;;;33.13;18.57;;;;;;;2.89;68.08;100903.72;5134870;27;20182;-66
2022/12/12 11:43:29;;;;;;;33.93;20.13;;;;;;;2.94;68.11;100893.81;5135052;27;20189;-66